sensor_id;sensor_type;location;lat;lon;timestamp;P1;durP1;ratioP1;P2;durP2;ratioP2
2848;SDS011;59355;52.416;13.412;2022-07-05T00:00:19;3.30;;;3.00;;
2848;SDS011;59355;52.416;13.412;2022-07-05T00:02:45;3.50;;;3.20;;
2848;SDS011;59355;52.416;13.412;2022-07-05T00:05:11;3.67;;;3.37;;
2848;SDS011;59355;52.416;13.412;2022-07-05T00:07:37;2.90;;;2.60;;
2848;SDS011;59355;52.416;13.412;2022-07-05T00:10:03;3.03;;;2.73;;
2848;SDS011;59355;52.416;13.412;2022-07-05T00:12:31;3.50;;;3.20;;
2848;SDS011;59355;52.416;13.412;2022-07-05T00:14:58;3.50;;;2.90;;
2848;SDS011;59355;52.416;13.412;2022-07-05T00:17:25;3.40;;;3.10;;
2848;SDS011;59355;52.416;13.412;2022-07-05T00:19:51;3.00;;;2.70;;
2848;SDS011;59355;52.416;13.412;2022-07-05T00:22:17;3.80;;;3.20;;
2848;SDS011;59355;52.416;13.412;2022-07-05T00:24:43;3.60;;;3.13;;
2848;SDS011;59355;52.416;13.412;2022-07-05T00:27:09;3.87;;;3.00;;
2848;SDS011;59355;52.416;13.412;2022-07-05T00:29:35;4.67;;;3.50;;
2848;SDS011;59355;52.416;13.412;2022-07-05T00:32:02;5.40;;;3.17;;
2848;SDS011;59355;52.416;13.412;2022-07-05T00:34:28;4.17;;;3.00;;
2848;SDS011;59355;52.416;13.412;2022-07-05T00:36:54;2.83;;;2.60;;
2848;SDS011;59355;52.416;13.412;2022-07-05T00:39:20;3.00;;;2.70;;
2848;SDS011;59355;52.416;13.412;2022-07-05T00:41:46;4.10;;;3.40;;
2848;SDS011;59355;52.416;13.412;2022-07-05T00:44:12;3.77;;;3.47;;
2848;SDS011;59355;52.416;13.412;2022-07-05T00:46:41;4.63;;;3.37;;
2848;SDS011;59355;52.416;13.412;2022-07-05T00:49:08;5.17;;;3.30;;
2848;SDS011;59355;52.416;13.412;2022-07-05T00:51:35;3.00;;;2.80;;
2848;SDS011;59355;52.416;13.412;2022-07-05T00:54:02;3.63;;;3.33;;
2848;SDS011;59355;52.416;13.412;2022-07-05T00:56:31;3.80;;;3.40;;
2848;SDS011;59355;52.416;13.412;2022-07-05T00:58:58;4.30;;;3.90;;
2848;SDS011;59355;52.416;13.412;2022-07-05T01:01:24;4.10;;;3.70;;
2848;SDS011;59355;52.416;13.412;2022-07-05T01:03:51;4.00;;;3.70;;
2848;SDS011;59355;52.416;13.412;2022-07-05T01:06:18;3.87;;;3.47;;
2848;SDS011;59355;52.416;13.412;2022-07-05T01:08:45;3.40;;;3.10;;
2848;SDS011;59355;52.416;13.412;2022-07-05T01:11:13;3.77;;;3.47;;
2848;SDS011;59355;52.416;13.412;2022-07-05T01:13:39;4.33;;;3.50;;
2848;SDS011;59355;52.416;13.412;2022-07-05T01:16:06;3.97;;;3.57;;
2848;SDS011;59355;52.416;13.412;2022-07-05T01:18:33;4.30;;;3.50;;
2848;SDS011;59355;52.416;13.412;2022-07-05T01:21:00;6.23;;;3.50;;
2848;SDS011;59355;52.416;13.412;2022-07-05T01:23:31;3.90;;;3.60;;
2848;SDS011;59355;52.416;13.412;2022-07-05T01:25:58;6.33;;;3.47;;
2848;SDS011;59355;52.416;13.412;2022-07-05T01:28:26;4.20;;;3.33;;
2848;SDS011;59355;52.416;13.412;2022-07-05T01:30:52;4.10;;;3.70;;
2848;SDS011;59355;52.416;13.412;2022-07-05T01:33:19;7.13;;;3.47;;
2848;SDS011;59355;52.416;13.412;2022-07-05T01:35:53;4.97;;;3.80;;
2848;SDS011;59355;52.416;13.412;2022-07-05T01:38:19;4.70;;;3.73;;
2848;SDS011;59355;52.416;13.412;2022-07-05T01:40:45;3.80;;;3.47;;
2848;SDS011;59355;52.416;13.412;2022-07-05T01:43:11;4.40;;;4.10;;
2848;SDS011;59355;52.416;13.412;2022-07-05T01:45:37;3.70;;;3.40;;
2848;SDS011;59355;52.416;13.412;2022-07-05T01:48:13;4.73;;;3.50;;
2848;SDS011;59355;52.416;13.412;2022-07-05T01:50:42;3.73;;;3.30;;
2848;SDS011;59355;52.416;13.412;2022-07-05T01:56:09;3.67;;;3.37;;
2848;SDS011;59355;52.416;13.412;2022-07-05T01:58:35;4.47;;;4.07;;
2848;SDS011;59355;52.416;13.412;2022-07-05T02:01:02;3.77;;;3.47;;
2848;SDS011;59355;52.416;13.412;2022-07-05T02:03:28;4.33;;;4.03;;
2848;SDS011;59355;52.416;13.412;2022-07-05T02:05:55;4.20;;;3.80;;
2848;SDS011;59355;52.416;13.412;2022-07-05T02:08:21;4.50;;;4.10;;
2848;SDS011;59355;52.416;13.412;2022-07-05T02:10:55;4.60;;;4.20;;
2848;SDS011;59355;52.416;13.412;2022-07-05T02:13:21;4.43;;;3.70;;
2848;SDS011;59355;52.416;13.412;2022-07-05T02:15:47;4.30;;;3.90;;
2848;SDS011;59355;52.416;13.412;2022-07-05T02:18:13;4.47;;;4.13;;
2848;SDS011;59355;52.416;13.412;2022-07-05T02:20:39;6.17;;;4.50;;
2848;SDS011;59355;52.416;13.412;2022-07-05T02:23:06;3.93;;;3.53;;
2848;SDS011;59355;52.416;13.412;2022-07-05T02:25:33;4.10;;;3.77;;
2848;SDS011;59355;52.416;13.412;2022-07-05T02:27:59;4.90;;;4.40;;
2848;SDS011;59355;52.416;13.412;2022-07-05T02:30:25;3.70;;;3.40;;
2848;SDS011;59355;52.416;13.412;2022-07-05T02:32:52;4.83;;;3.90;;
2848;SDS011;59355;52.416;13.412;2022-07-05T02:35:18;4.30;;;4.00;;
2848;SDS011;59355;52.416;13.412;2022-07-05T02:37:44;4.50;;;4.10;;
2848;SDS011;59355;52.416;13.412;2022-07-05T02:40:11;5.30;;;3.90;;
2848;SDS011;59355;52.416;13.412;2022-07-05T02:42:39;4.93;;;4.50;;
2848;SDS011;59355;52.416;13.412;2022-07-05T02:45:06;4.40;;;3.53;;
2848;SDS011;59355;52.416;13.412;2022-07-05T02:47:33;3.83;;;3.53;;
2848;SDS011;59355;52.416;13.412;2022-07-05T02:50:06;4.90;;;3.90;;
2848;SDS011;59355;52.416;13.412;2022-07-05T02:52:34;6.33;;;4.67;;
2848;SDS011;59355;52.416;13.412;2022-07-05T02:55:01;4.50;;;4.10;;
2848;SDS011;59355;52.416;13.412;2022-07-05T02:57:28;5.33;;;4.07;;
2848;SDS011;59355;52.416;13.412;2022-07-05T02:59:54;4.43;;;4.03;;
2848;SDS011;59355;52.416;13.412;2022-07-05T03:02:21;4.00;;;3.70;;
2848;SDS011;59355;52.416;13.412;2022-07-05T03:04:48;4.57;;;4.07;;
2848;SDS011;59355;52.416;13.412;2022-07-05T03:07:14;4.50;;;3.60;;
2848;SDS011;59355;52.416;13.412;2022-07-05T03:09:40;5.07;;;3.73;;
2848;SDS011;59355;52.416;13.412;2022-07-05T03:12:06;5.90;;;3.47;;
2848;SDS011;59355;52.416;13.412;2022-07-05T03:14:33;5.40;;;3.27;;
2848;SDS011;59355;52.416;13.412;2022-07-05T03:16:59;9.83;;;3.80;;
2848;SDS011;59355;52.416;13.412;2022-07-05T03:19:25;3.40;;;2.90;;
2848;SDS011;59355;52.416;13.412;2022-07-05T03:21:51;3.93;;;2.67;;
2848;SDS011;59355;52.416;13.412;2022-07-05T03:24:18;3.87;;;3.10;;
2848;SDS011;59355;52.416;13.412;2022-07-05T03:26:44;4.40;;;3.40;;
2848;SDS011;59355;52.416;13.412;2022-07-05T03:29:10;3.20;;;2.90;;
2848;SDS011;59355;52.416;13.412;2022-07-05T03:31:36;4.20;;;3.10;;
2848;SDS011;59355;52.416;13.412;2022-07-05T03:34:02;4.20;;;3.27;;
2848;SDS011;59355;52.416;13.412;2022-07-05T03:36:28;2.87;;;2.67;;
2848;SDS011;59355;52.416;13.412;2022-07-05T03:38:54;3.50;;;2.93;;
2848;SDS011;59355;52.416;13.412;2022-07-05T03:41:20;3.57;;;3.27;;
2848;SDS011;59355;52.416;13.412;2022-07-05T03:43:47;4.10;;;3.00;;
2848;SDS011;59355;52.416;13.412;2022-07-05T03:46:13;3.40;;;3.10;;
2848;SDS011;59355;52.416;13.412;2022-07-05T03:48:39;6.97;;;2.67;;
2848;SDS011;59355;52.416;13.412;2022-07-05T03:51:05;3.70;;;2.63;;
2848;SDS011;59355;52.416;13.412;2022-07-05T03:53:31;4.50;;;2.97;;
2848;SDS011;59355;52.416;13.412;2022-07-05T03:55:57;3.20;;;2.87;;
2848;SDS011;59355;52.416;13.412;2022-07-05T03:58:23;5.33;;;2.70;;
2848;SDS011;59355;52.416;13.412;2022-07-05T04:00:49;3.07;;;2.77;;
2848;SDS011;59355;52.416;13.412;2022-07-05T04:03:15;4.97;;;2.80;;
2848;SDS011;59355;52.416;13.412;2022-07-05T04:05:41;2.93;;;2.37;;
2848;SDS011;59355;52.416;13.412;2022-07-05T04:08:07;3.10;;;2.63;;
2848;SDS011;59355;52.416;13.412;2022-07-05T04:10:33;3.93;;;2.67;;
2848;SDS011;59355;52.416;13.412;2022-07-05T04:12:59;3.30;;;2.93;;
2848;SDS011;59355;52.416;13.412;2022-07-05T04:15:25;3.87;;;3.17;;
2848;SDS011;59355;52.416;13.412;2022-07-05T04:17:52;3.83;;;2.63;;
2848;SDS011;59355;52.416;13.412;2022-07-05T04:20:19;2.93;;;2.47;;
2848;SDS011;59355;52.416;13.412;2022-07-05T04:22:47;2.70;;;2.50;;
2848;SDS011;59355;52.416;13.412;2022-07-05T04:25:14;4.20;;;2.80;;
2848;SDS011;59355;52.416;13.412;2022-07-05T04:27:44;3.10;;;2.20;;
2848;SDS011;59355;52.416;13.412;2022-07-05T04:30:11;4.07;;;2.73;;
2848;SDS011;59355;52.416;13.412;2022-07-05T04:32:37;3.30;;;2.83;;
2848;SDS011;59355;52.416;13.412;2022-07-05T04:35:03;2.50;;;2.30;;
2848;SDS011;59355;52.416;13.412;2022-07-05T04:37:30;5.03;;;2.50;;
2848;SDS011;59355;52.416;13.412;2022-07-05T04:39:56;10.93;;;2.30;;
2848;SDS011;59355;52.416;13.412;2022-07-05T04:42:22;4.17;;;2.30;;
2848;SDS011;59355;52.416;13.412;2022-07-05T04:44:48;2.93;;;2.60;;
2848;SDS011;59355;52.416;13.412;2022-07-05T04:47:14;4.70;;;2.80;;
2848;SDS011;59355;52.416;13.412;2022-07-05T04:49:40;2.60;;;2.13;;
2848;SDS011;59355;52.416;13.412;2022-07-05T04:52:06;5.40;;;2.33;;
2848;SDS011;59355;52.416;13.412;2022-07-05T04:54:32;5.93;;;2.70;;
2848;SDS011;59355;52.416;13.412;2022-07-05T04:56:58;4.40;;;2.90;;
2848;SDS011;59355;52.416;13.412;2022-07-05T04:59:24;3.00;;;2.50;;
2848;SDS011;59355;52.416;13.412;2022-07-05T05:01:51;3.47;;;2.30;;
2848;SDS011;59355;52.416;13.412;2022-07-05T05:04:17;2.80;;;2.60;;
2848;SDS011;59355;52.416;13.412;2022-07-05T05:06:43;6.37;;;3.97;;
2848;SDS011;59355;52.416;13.412;2022-07-05T05:09:09;2.50;;;2.30;;
2848;SDS011;59355;52.416;13.412;2022-07-05T05:11:35;3.10;;;2.43;;
2848;SDS011;59355;52.416;13.412;2022-07-05T05:14:01;6.10;;;2.50;;
2848;SDS011;59355;52.416;13.412;2022-07-05T05:16:27;5.20;;;2.30;;
2848;SDS011;59355;52.416;13.412;2022-07-05T05:18:53;5.20;;;3.03;;
2848;SDS011;59355;52.416;13.412;2022-07-05T05:21:19;5.00;;;2.20;;
2848;SDS011;59355;52.416;13.412;2022-07-05T05:23:45;3.83;;;2.77;;
2848;SDS011;59355;52.416;13.412;2022-07-05T05:26:11;4.57;;;2.47;;
2848;SDS011;59355;52.416;13.412;2022-07-05T05:28:37;2.20;;;1.90;;
2848;SDS011;59355;52.416;13.412;2022-07-05T05:31:04;4.13;;;2.17;;
2848;SDS011;59355;52.416;13.412;2022-07-05T05:33:30;3.33;;;2.23;;
2848;SDS011;59355;52.416;13.412;2022-07-05T05:35:56;2.77;;;1.80;;
2848;SDS011;59355;52.416;13.412;2022-07-05T05:38:23;3.50;;;2.47;;
2848;SDS011;59355;52.416;13.412;2022-07-05T05:40:49;2.67;;;2.27;;
2848;SDS011;59355;52.416;13.412;2022-07-05T05:43:15;2.30;;;1.90;;
2848;SDS011;59355;52.416;13.412;2022-07-05T05:45:41;2.70;;;2.10;;
2848;SDS011;59355;52.416;13.412;2022-07-05T05:48:07;4.20;;;2.47;;
2848;SDS011;59355;52.416;13.412;2022-07-05T05:50:34;2.30;;;1.90;;
2848;SDS011;59355;52.416;13.412;2022-07-05T05:53:02;3.87;;;2.37;;
2848;SDS011;59355;52.416;13.412;2022-07-05T05:55:29;3.40;;;2.00;;
2848;SDS011;59355;52.416;13.412;2022-07-05T05:57:56;3.60;;;2.50;;
2848;SDS011;59355;52.416;13.412;2022-07-05T06:00:35;4.50;;;2.40;;
2848;SDS011;59355;52.416;13.412;2022-07-05T06:03:01;3.73;;;2.40;;
2848;SDS011;59355;52.416;13.412;2022-07-05T06:05:27;3.47;;;2.30;;
2848;SDS011;59355;52.416;13.412;2022-07-05T06:07:54;2.20;;;2.00;;
2848;SDS011;59355;52.416;13.412;2022-07-05T06:10:22;2.60;;;2.00;;
2848;SDS011;59355;52.416;13.412;2022-07-05T06:12:58;2.77;;;2.40;;
2848;SDS011;59355;52.416;13.412;2022-07-05T06:15:26;3.27;;;2.20;;
2848;SDS011;59355;52.416;13.412;2022-07-05T06:17:53;3.93;;;2.50;;
2848;SDS011;59355;52.416;13.412;2022-07-05T06:20:20;5.10;;;2.13;;
2848;SDS011;59355;52.416;13.412;2022-07-05T06:22:47;2.93;;;2.20;;
2848;SDS011;59355;52.416;13.412;2022-07-05T06:25:15;3.50;;;2.30;;
2848;SDS011;59355;52.416;13.412;2022-07-05T06:27:42;2.30;;;2.10;;
2848;SDS011;59355;52.416;13.412;2022-07-05T06:30:10;3.90;;;2.13;;
2848;SDS011;59355;52.416;13.412;2022-07-05T06:32:39;2.33;;;2.10;;
2848;SDS011;59355;52.416;13.412;2022-07-05T06:35:05;3.57;;;2.00;;
2848;SDS011;59355;52.416;13.412;2022-07-05T06:37:49;3.70;;;2.00;;
2848;SDS011;59355;52.416;13.412;2022-07-05T06:40:20;2.50;;;2.07;;
2848;SDS011;59355;52.416;13.412;2022-07-05T06:42:48;4.03;;;2.67;;
2848;SDS011;59355;52.416;13.412;2022-07-05T06:45:15;2.87;;;2.23;;
2848;SDS011;59355;52.416;13.412;2022-07-05T06:47:42;2.63;;;2.43;;
2848;SDS011;59355;52.416;13.412;2022-07-05T06:50:08;5.20;;;2.67;;
2848;SDS011;59355;52.416;13.412;2022-07-05T06:52:36;4.23;;;2.47;;
2848;SDS011;59355;52.416;13.412;2022-07-05T06:55:03;2.53;;;2.27;;
2848;SDS011;59355;52.416;13.412;2022-07-05T06:57:29;17.73;;;3.80;;
2848;SDS011;59355;52.416;13.412;2022-07-05T06:59:55;3.50;;;2.40;;
2848;SDS011;59355;52.416;13.412;2022-07-05T07:02:22;3.63;;;2.20;;
2848;SDS011;59355;52.416;13.412;2022-07-05T07:04:48;3.33;;;2.23;;
2848;SDS011;59355;52.416;13.412;2022-07-05T07:07:14;3.13;;;2.10;;
2848;SDS011;59355;52.416;13.412;2022-07-05T07:09:59;3.30;;;2.23;;
2848;SDS011;59355;52.416;13.412;2022-07-05T07:12:27;2.63;;;2.10;;
2848;SDS011;59355;52.416;13.412;2022-07-05T07:14:54;3.00;;;2.17;;
2848;SDS011;59355;52.416;13.412;2022-07-05T07:17:24;2.70;;;2.30;;
2848;SDS011;59355;52.416;13.412;2022-07-05T07:19:50;3.20;;;2.90;;
2848;SDS011;59355;52.416;13.412;2022-07-05T07:22:16;4.13;;;2.30;;
2848;SDS011;59355;52.416;13.412;2022-07-05T07:24:42;3.83;;;2.20;;
2848;SDS011;59355;52.416;13.412;2022-07-05T07:27:08;4.43;;;2.20;;
2848;SDS011;59355;52.416;13.412;2022-07-05T07:29:35;3.03;;;2.20;;
2848;SDS011;59355;52.416;13.412;2022-07-05T07:32:02;3.37;;;2.43;;
2848;SDS011;59355;52.416;13.412;2022-07-05T07:34:29;2.67;;;2.40;;
2848;SDS011;59355;52.416;13.412;2022-07-05T07:36:56;2.83;;;2.17;;
2848;SDS011;59355;52.416;13.412;2022-07-05T07:39:23;2.60;;;2.30;;
2848;SDS011;59355;52.416;13.412;2022-07-05T07:41:50;6.00;;;2.80;;
2848;SDS011;59355;52.416;13.412;2022-07-05T07:44:16;4.27;;;2.63;;
2848;SDS011;59355;52.416;13.412;2022-07-05T07:46:42;4.50;;;3.13;;
2848;SDS011;59355;52.416;13.412;2022-07-05T07:49:09;3.03;;;2.73;;
2848;SDS011;59355;52.416;13.412;2022-07-05T07:51:36;5.43;;;2.80;;
2848;SDS011;59355;52.416;13.412;2022-07-05T07:54:03;7.30;;;2.17;;
2848;SDS011;59355;52.416;13.412;2022-07-05T07:56:29;4.50;;;2.77;;
2848;SDS011;59355;52.416;13.412;2022-07-05T07:58:55;4.60;;;3.00;;
2848;SDS011;59355;52.416;13.412;2022-07-05T08:01:21;4.00;;;2.30;;
2848;SDS011;59355;52.416;13.412;2022-07-05T08:03:48;3.97;;;2.27;;
2848;SDS011;59355;52.416;13.412;2022-07-05T08:06:14;2.80;;;2.30;;
2848;SDS011;59355;52.416;13.412;2022-07-05T08:08:41;3.70;;;2.50;;
2848;SDS011;59355;52.416;13.412;2022-07-05T08:11:10;4.50;;;2.30;;
2848;SDS011;59355;52.416;13.412;2022-07-05T08:13:37;4.03;;;2.60;;
2848;SDS011;59355;52.416;13.412;2022-07-05T08:16:06;2.87;;;2.00;;
2848;SDS011;59355;52.416;13.412;2022-07-05T08:18:32;2.80;;;2.47;;
2848;SDS011;59355;52.416;13.412;2022-07-05T08:21:17;2.30;;;2.10;;
2848;SDS011;59355;52.416;13.412;2022-07-05T08:24:09;2.23;;;2.03;;
2848;SDS011;59355;52.416;13.412;2022-07-05T08:26:37;4.70;;;2.20;;
2848;SDS011;59355;52.416;13.412;2022-07-05T08:29:05;3.10;;;2.30;;
2848;SDS011;59355;52.416;13.412;2022-07-05T08:31:37;5.27;;;2.60;;
2848;SDS011;59355;52.416;13.412;2022-07-05T08:34:05;4.00;;;2.60;;
2848;SDS011;59355;52.416;13.412;2022-07-05T08:36:32;2.83;;;2.20;;
2848;SDS011;59355;52.416;13.412;2022-07-05T08:38:58;3.60;;;2.50;;
2848;SDS011;59355;52.416;13.412;2022-07-05T08:41:24;3.60;;;2.00;;
2848;SDS011;59355;52.416;13.412;2022-07-05T08:43:51;2.87;;;2.57;;
2848;SDS011;59355;52.416;13.412;2022-07-05T08:46:18;6.33;;;2.80;;
2848;SDS011;59355;52.416;13.412;2022-07-05T08:48:48;2.70;;;2.00;;
2848;SDS011;59355;52.416;13.412;2022-07-05T08:51:16;3.50;;;2.33;;
2848;SDS011;59355;52.416;13.412;2022-07-05T08:53:46;2.23;;;1.60;;
2848;SDS011;59355;52.416;13.412;2022-07-05T08:56:15;2.93;;;2.27;;
2848;SDS011;59355;52.416;13.412;2022-07-05T08:58:42;3.90;;;3.43;;
2848;SDS011;59355;52.416;13.412;2022-07-05T09:01:09;4.10;;;2.40;;
2848;SDS011;59355;52.416;13.412;2022-07-05T09:03:37;3.53;;;2.07;;
2848;SDS011;59355;52.416;13.412;2022-07-05T09:06:07;3.87;;;2.50;;
2848;SDS011;59355;52.416;13.412;2022-07-05T09:08:36;4.23;;;2.43;;
2848;SDS011;59355;52.416;13.412;2022-07-05T09:11:06;3.10;;;2.30;;
2848;SDS011;59355;52.416;13.412;2022-07-05T09:13:35;2.40;;;2.20;;
2848;SDS011;59355;52.416;13.412;2022-07-05T09:16:02;6.73;;;2.33;;
2848;SDS011;59355;52.416;13.412;2022-07-05T09:18:38;2.50;;;2.17;;
2848;SDS011;59355;52.416;13.412;2022-07-05T09:21:39;2.87;;;2.50;;
2848;SDS011;59355;52.416;13.412;2022-07-05T09:26:44;3.03;;;2.20;;
2848;SDS011;59355;52.416;13.412;2022-07-05T09:29:17;2.67;;;2.47;;
2848;SDS011;59355;52.416;13.412;2022-07-05T09:31:45;2.23;;;2.03;;
2848;SDS011;59355;52.416;13.412;2022-07-05T09:36:54;3.80;;;2.20;;
2848;SDS011;59355;52.416;13.412;2022-07-05T09:42:14;2.60;;;2.10;;
2848;SDS011;59355;52.416;13.412;2022-07-05T09:44:45;3.50;;;3.03;;
2848;SDS011;59355;52.416;13.412;2022-07-05T09:47:14;3.27;;;2.63;;
2848;SDS011;59355;52.416;13.412;2022-07-05T09:49:46;3.50;;;2.27;;
2848;SDS011;59355;52.416;13.412;2022-07-05T09:52:26;6.80;;;2.77;;
2848;SDS011;59355;52.416;13.412;2022-07-05T09:55:00;3.37;;;3.07;;
2848;SDS011;59355;52.416;13.412;2022-07-05T09:57:34;5.00;;;2.80;;
2848;SDS011;59355;52.416;13.412;2022-07-05T10:00:11;3.47;;;1.97;;
2848;SDS011;59355;52.416;13.412;2022-07-05T10:05:10;3.93;;;3.10;;
2848;SDS011;59355;52.416;13.412;2022-07-05T10:07:39;4.00;;;2.50;;
2848;SDS011;59355;52.416;13.412;2022-07-05T10:10:07;3.17;;;2.87;;
2848;SDS011;59355;52.416;13.412;2022-07-05T10:12:35;7.03;;;3.40;;
2848;SDS011;59355;52.416;13.412;2022-07-05T10:15:02;3.23;;;2.30;;
2848;SDS011;59355;52.416;13.412;2022-07-05T10:17:30;3.40;;;2.80;;
2848;SDS011;59355;52.416;13.412;2022-07-05T10:20:01;5.50;;;2.60;;
2848;SDS011;59355;52.416;13.412;2022-07-05T10:22:32;4.00;;;2.43;;
2848;SDS011;59355;52.416;13.412;2022-07-05T10:25:00;3.03;;;2.73;;
2848;SDS011;59355;52.416;13.412;2022-07-05T10:27:27;2.33;;;2.13;;
2848;SDS011;59355;52.416;13.412;2022-07-05T10:29:54;4.83;;;2.67;;
2848;SDS011;59355;52.416;13.412;2022-07-05T10:32:22;3.60;;;2.83;;
2848;SDS011;59355;52.416;13.412;2022-07-05T10:34:49;3.77;;;2.83;;
2848;SDS011;59355;52.416;13.412;2022-07-05T10:37:17;2.90;;;2.60;;
2848;SDS011;59355;52.416;13.412;2022-07-05T10:39:44;3.90;;;3.10;;
2848;SDS011;59355;52.416;13.412;2022-07-05T10:42:10;5.03;;;2.90;;
2848;SDS011;59355;52.416;13.412;2022-07-05T10:44:37;3.00;;;2.70;;
2848;SDS011;59355;52.416;13.412;2022-07-05T10:47:07;5.50;;;3.13;;
2848;SDS011;59355;52.416;13.412;2022-07-05T10:49:37;3.07;;;2.87;;
2848;SDS011;59355;52.416;13.412;2022-07-05T10:52:04;3.50;;;2.87;;
2848;SDS011;59355;52.416;13.412;2022-07-05T10:57:40;3.50;;;3.20;;
2848;SDS011;59355;52.416;13.412;2022-07-05T11:00:07;9.33;;;2.80;;
2848;SDS011;59355;52.416;13.412;2022-07-05T11:02:35;4.50;;;2.80;;
2848;SDS011;59355;52.416;13.412;2022-07-05T11:05:02;3.23;;;2.77;;
2848;SDS011;59355;52.416;13.412;2022-07-05T11:10:23;3.40;;;3.10;;
2848;SDS011;59355;52.416;13.412;2022-07-05T11:12:50;3.23;;;2.60;;
2848;SDS011;59355;52.416;13.412;2022-07-05T11:15:16;3.97;;;2.60;;
2848;SDS011;59355;52.416;13.412;2022-07-05T11:17:42;3.27;;;2.67;;
2848;SDS011;59355;52.416;13.412;2022-07-05T11:20:13;4.83;;;2.50;;
2848;SDS011;59355;52.416;13.412;2022-07-05T11:22:42;2.70;;;2.47;;
2848;SDS011;59355;52.416;13.412;2022-07-05T11:25:29;2.80;;;2.43;;
2848;SDS011;59355;52.416;13.412;2022-07-05T11:28:04;2.87;;;2.30;;
2848;SDS011;59355;52.416;13.412;2022-07-05T11:30:47;4.30;;;2.80;;
2848;SDS011;59355;52.416;13.412;2022-07-05T11:33:29;4.73;;;2.77;;
2848;SDS011;59355;52.416;13.412;2022-07-05T11:35:57;3.77;;;2.47;;
2848;SDS011;59355;52.416;13.412;2022-07-05T11:38:24;3.53;;;2.63;;
2848;SDS011;59355;52.416;13.412;2022-07-05T11:40:50;3.23;;;2.80;;
2848;SDS011;59355;52.416;13.412;2022-07-05T11:43:24;4.47;;;3.20;;
2848;SDS011;59355;52.416;13.412;2022-07-05T11:45:58;5.57;;;2.50;;
2848;SDS011;59355;52.416;13.412;2022-07-05T11:48:25;3.83;;;2.33;;
2848;SDS011;59355;52.416;13.412;2022-07-05T11:50:52;7.03;;;2.87;;
2848;SDS011;59355;52.416;13.412;2022-07-05T11:53:26;3.40;;;2.30;;
2848;SDS011;59355;52.416;13.412;2022-07-05T11:55:57;5.50;;;2.80;;
2848;SDS011;59355;52.416;13.412;2022-07-05T11:58:30;2.40;;;2.13;;
2848;SDS011;59355;52.416;13.412;2022-07-05T12:00:59;5.07;;;2.83;;
2848;SDS011;59355;52.416;13.412;2022-07-05T12:03:27;2.97;;;2.50;;
2848;SDS011;59355;52.416;13.412;2022-07-05T12:05:54;2.70;;;2.30;;
2848;SDS011;59355;52.416;13.412;2022-07-05T12:08:24;2.50;;;2.27;;
2848;SDS011;59355;52.416;13.412;2022-07-05T12:10:51;3.70;;;2.43;;
2848;SDS011;59355;52.416;13.412;2022-07-05T12:13:48;3.00;;;2.23;;
2848;SDS011;59355;52.416;13.412;2022-07-05T12:16:15;10.67;;;2.50;;
2848;SDS011;59355;52.416;13.412;2022-07-05T12:18:46;2.40;;;2.17;;
2848;SDS011;59355;52.416;13.412;2022-07-05T12:21:12;3.50;;;2.33;;
2848;SDS011;59355;52.416;13.412;2022-07-05T12:23:42;3.20;;;2.07;;
2848;SDS011;59355;52.416;13.412;2022-07-05T12:26:09;3.00;;;2.47;;
2848;SDS011;59355;52.416;13.412;2022-07-05T12:28:36;3.00;;;2.40;;
2848;SDS011;59355;52.416;13.412;2022-07-05T12:33:48;2.60;;;2.40;;
2848;SDS011;59355;52.416;13.412;2022-07-05T12:36:16;3.50;;;2.23;;
2848;SDS011;59355;52.416;13.412;2022-07-05T12:38:44;3.17;;;1.90;;
2848;SDS011;59355;52.416;13.412;2022-07-05T12:41:10;3.27;;;2.23;;
2848;SDS011;59355;52.416;13.412;2022-07-05T12:43:52;5.23;;;2.43;;
2848;SDS011;59355;52.416;13.412;2022-07-05T12:46:21;4.23;;;3.83;;
2848;SDS011;59355;52.416;13.412;2022-07-05T12:49:03;3.80;;;2.60;;
2848;SDS011;59355;52.416;13.412;2022-07-05T12:51:31;3.10;;;2.00;;
2848;SDS011;59355;52.416;13.412;2022-07-05T12:54:01;5.47;;;2.30;;
2848;SDS011;59355;52.416;13.412;2022-07-05T12:56:52;3.70;;;2.00;;
2848;SDS011;59355;52.416;13.412;2022-07-05T12:59:38;3.80;;;2.17;;
2848;SDS011;59355;52.416;13.412;2022-07-05T13:02:07;2.90;;;2.27;;
2848;SDS011;59355;52.416;13.412;2022-07-05T13:04:34;2.90;;;2.13;;
2848;SDS011;59355;52.416;13.412;2022-07-05T13:07:01;2.20;;;2.00;;
2848;SDS011;59355;52.416;13.412;2022-07-05T13:14:45;3.50;;;2.60;;
2848;SDS011;59355;52.416;13.412;2022-07-05T13:17:13;4.30;;;2.50;;
2848;SDS011;59355;52.416;13.412;2022-07-05T13:19:41;3.20;;;2.00;;
2848;SDS011;59355;52.416;13.412;2022-07-05T13:22:08;3.13;;;2.10;;
2848;SDS011;59355;52.416;13.412;2022-07-05T13:24:34;2.37;;;2.17;;
2848;SDS011;59355;52.416;13.412;2022-07-05T13:27:01;3.70;;;2.20;;
2848;SDS011;59355;52.416;13.412;2022-07-05T13:29:28;4.00;;;2.00;;
2848;SDS011;59355;52.416;13.412;2022-07-05T13:31:54;3.37;;;2.30;;
2848;SDS011;59355;52.416;13.412;2022-07-05T13:34:20;7.00;;;2.50;;
2848;SDS011;59355;52.416;13.412;2022-07-05T13:36:54;2.70;;;1.90;;
2848;SDS011;59355;52.416;13.412;2022-07-05T13:39:21;3.40;;;2.00;;
2848;SDS011;59355;52.416;13.412;2022-07-05T13:41:49;2.33;;;2.13;;
2848;SDS011;59355;52.416;13.412;2022-07-05T13:44:16;3.60;;;2.40;;
2848;SDS011;59355;52.416;13.412;2022-07-05T13:46:43;3.37;;;2.50;;
2848;SDS011;59355;52.416;13.412;2022-07-05T13:49:09;2.70;;;2.10;;
2848;SDS011;59355;52.416;13.412;2022-07-05T13:51:35;3.60;;;2.30;;
2848;SDS011;59355;52.416;13.412;2022-07-05T13:54:01;2.67;;;2.10;;
2848;SDS011;59355;52.416;13.412;2022-07-05T13:56:28;4.40;;;2.57;;
2848;SDS011;59355;52.416;13.412;2022-07-05T13:58:54;3.00;;;2.03;;
2848;SDS011;59355;52.416;13.412;2022-07-05T14:01:21;4.20;;;2.10;;
2848;SDS011;59355;52.416;13.412;2022-07-05T14:04:01;3.00;;;2.23;;
2848;SDS011;59355;52.416;13.412;2022-07-05T14:06:28;2.73;;;2.00;;
2848;SDS011;59355;52.416;13.412;2022-07-05T14:08:55;3.00;;;2.50;;
2848;SDS011;59355;52.416;13.412;2022-07-05T14:11:22;2.43;;;2.17;;
2848;SDS011;59355;52.416;13.412;2022-07-05T14:13:52;4.70;;;2.57;;
2848;SDS011;59355;52.416;13.412;2022-07-05T14:16:24;2.40;;;2.13;;
2848;SDS011;59355;52.416;13.412;2022-07-05T14:18:50;3.00;;;2.53;;
2848;SDS011;59355;52.416;13.412;2022-07-05T14:21:18;3.10;;;2.33;;
2848;SDS011;59355;52.416;13.412;2022-07-05T14:23:44;2.77;;;2.47;;
2848;SDS011;59355;52.416;13.412;2022-07-05T14:26:14;3.80;;;2.17;;
2848;SDS011;59355;52.416;13.412;2022-07-05T14:28:40;3.37;;;2.40;;
2848;SDS011;59355;52.416;13.412;2022-07-05T14:31:06;2.50;;;2.30;;
2848;SDS011;59355;52.416;13.412;2022-07-05T14:33:32;3.87;;;2.27;;
2848;SDS011;59355;52.416;13.412;2022-07-05T14:35:58;2.30;;;2.10;;
2848;SDS011;59355;52.416;13.412;2022-07-05T14:38:24;2.60;;;2.03;;
2848;SDS011;59355;52.416;13.412;2022-07-05T14:40:50;3.13;;;1.90;;
2848;SDS011;59355;52.416;13.412;2022-07-05T14:43:17;2.40;;;2.20;;
2848;SDS011;59355;52.416;13.412;2022-07-05T14:45:43;3.03;;;2.47;;
2848;SDS011;59355;52.416;13.412;2022-07-05T14:48:09;2.37;;;2.00;;
2848;SDS011;59355;52.416;13.412;2022-07-05T14:50:35;2.30;;;2.10;;
2848;SDS011;59355;52.416;13.412;2022-07-05T14:53:01;3.83;;;2.30;;
2848;SDS011;59355;52.416;13.412;2022-07-05T14:55:34;3.40;;;2.37;;
2848;SDS011;59355;52.416;13.412;2022-07-05T14:58:01;2.37;;;2.17;;
2848;SDS011;59355;52.416;13.412;2022-07-05T15:00:27;2.90;;;2.33;;
2848;SDS011;59355;52.416;13.412;2022-07-05T15:02:53;3.53;;;2.43;;
2848;SDS011;59355;52.416;13.412;2022-07-05T15:05:20;2.00;;;1.80;;
2848;SDS011;59355;52.416;13.412;2022-07-05T15:07:46;2.57;;;2.20;;
2848;SDS011;59355;52.416;13.412;2022-07-05T15:10:12;2.10;;;1.90;;
2848;SDS011;59355;52.416;13.412;2022-07-05T15:12:38;2.20;;;2.00;;
2848;SDS011;59355;52.416;13.412;2022-07-05T15:15:04;2.30;;;2.10;;
2848;SDS011;59355;52.416;13.412;2022-07-05T15:17:30;2.50;;;2.30;;
2848;SDS011;59355;52.416;13.412;2022-07-05T15:19:59;2.50;;;2.17;;